Terminal Aerodrome Forecast
Issued by NWS

Home | Current Version | Previous Version | Text Only | Print | Product List | Glossary On
Versions: 1 2 3 4 5 6 7 8 9 10 11 12 13 14 15 16
000
FTUS43 KJKL 250539
TAFSME
TAF
KSME 250539Z 2506/2606 VRB06KT P6SM SCT250
     FM251500 20008G17KT 5SM -TSRA BKN050CB OVC100
     FM251900 20010G20KT 2SM TSRA BKN030CB OVC100
     FM252300 21007KT P6SM VCTS SCT030CB BKN050=

USA.gov is the U.S. government's official web portal to all federal, state and local government web resources and services.